Time;durP1;ratioP1;P1;durP2;ratioP2;P2;SDS_P1;SDS_P2;PMS_P1;PMS_P2;Temp;Humidity;BMP_temperature;BMP_pressure;BME280_temperature;BME280_humidity;BME280_pressure;Samples;Min_cycle;Max_cycle;Signal;HPM_P1;HPM_P2
2023/05/06 00:00:38;;;;;;;4.25;3.15;;;13.30;59.60;;;;;;5119266;28;20038;-73
2023/05/06 00:03:14;;;;;;;3.38;3.08;;;13.30;68.90;;;;;;5104158;28;20055;-72
2023/05/06 00:05:51;;;;;;;5.03;3.25;;;13.30;53.10;;;;;;5108835;28;20146;-75
2023/05/06 00:08:25;;;;;;;3.30;2.97;;;13.30;57.10;;;;;;5116224;28;20045;-71
2023/05/06 00:11:03;;;;;;;4.50;3.58;;;13.30;59.80;;;;;;5135105;28;20048;-71
2023/05/06 00:13:36;;;;;;;4.45;3.17;;;13.30;64.20;;;;;;5137210;28;20106;-75
2023/05/06 00:16:10;;;;;;;7.63;3.83;;;13.20;90.80;;;;;;5133624;28;20030;-75
2023/05/06 00:18:44;;;;;;;4.87;4.00;;;13.10;99.90;;;;;;5154222;28;20617;-69
2023/05/06 00:21:18;;;;;;;4.90;3.50;;;13.00;99.90;;;;;;5120793;28;20291;-75
2023/05/06 00:23:49;;;;;;;4.50;3.25;;;12.90;99.90;;;;;;5121840;28;20042;-73
2023/05/06 00:26:21;;;;;;;4.82;3.50;;;12.80;99.90;;;;;;5118027;28;20042;-72
2023/05/06 00:28:54;;;;;;;3.80;3.30;;;12.70;99.90;;;;;;5154081;28;20022;-72
2023/05/06 00:31:31;;;;;;;4.77;3.77;;;12.60;99.90;;;;;;5151342;28;20508;-69
2023/05/06 00:34:10;;;;;;;5.70;3.20;;;12.60;99.90;;;;;;5151123;28;20645;-75
2023/05/06 00:36:42;;;;;;;3.85;3.20;;;12.60;99.90;;;;;;5120738;28;20038;-72
2023/05/06 00:39:16;;;;;;;2.80;2.42;;;12.70;99.90;;;;;;5120318;28;20057;-70
2023/05/06 00:42:03;;;;;;;3.83;3.42;;;12.90;99.90;;;;;;5121348;28;20050;-75
2023/05/06 00:44:35;;;;;;;3.22;2.92;;;13.10;99.90;;;;;;5136272;28;20030;-73
2023/05/06 00:47:09;;;;;;;3.53;3.22;;;13.30;92.50;;;;;;5150362;28;20046;-75
2023/05/06 00:49:41;;;;;;;3.67;3.00;;;13.40;58.70;;;;;;5153523;28;20038;-74
2023/05/06 00:52:19;;;;;;;3.25;2.95;;;13.60;24.30;;;;;;5137569;28;20038;-73
2023/05/06 00:54:53;;;;;;;3.50;2.92;;;13.80;18.10;;;;;;5153602;28;20046;-70
2023/05/06 00:57:27;;;;;;;4.15;2.88;;;13.90;12.10;;;;;;5132445;28;20034;-72
2023/05/06 00:59:59;;;;;;;3.67;2.70;;;13.90;11.90;;;;;;5152642;28;20044;-75
2023/05/06 01:02:31;;;;;;;2.25;2.05;;;13.90;1.00;;;;;;5214807;23;20058;-74
2023/05/06 01:05:05;;;;;;;3.40;2.40;;;14.10;1.00;;;;;;5136961;28;20577;-67
2023/05/06 01:08:08;;;;;;;1.48;1.38;;;14.60;1.00;;;;;;5111567;28;20046;-65
2023/05/06 01:11:06;;;;;;;1.58;1.48;;;15.40;1.00;;;;;;5125743;28;20046;-70
2023/05/06 01:14:05;;;;;;;1.15;1.15;;;15.80;1.00;;;;;;5119388;28;20046;-70
2023/05/06 01:16:41;;;;;;;0.90;0.90;;;16.10;1.00;;;;;;5123575;28;20038;-70
2023/05/06 01:19:46;;;;;;;1.17;1.08;;;16.40;1.00;;;;;;5106099;28;20034;-72
2023/05/06 01:22:22;;;;;;;1.30;1.20;;;16.50;1.00;;;;;;5134484;28;20625;-71
2023/05/06 01:24:53;;;;;;;1.60;1.08;;;16.60;1.00;;;;;;5104320;28;20231;-73
2023/05/06 01:27:28;;;;;;;1.00;1.00;;;16.50;1.00;;;;;;5148633;28;20049;-71
2023/05/06 01:30:00;;;;;;;1.20;1.10;;;16.50;1.00;;;;;;5115258;28;20050;-74
2023/05/06 01:32:50;;;;;;;1.13;1.02;;;16.60;1.00;;;;;;5081441;28;20068;-73
2023/05/06 01:35:53;;;;;;;3.60;0.98;;;16.60;1.00;;;;;;5126730;28;20044;-74
2023/05/06 01:38:48;;;;;;;1.00;1.00;;;16.60;1.00;;;;;;5152519;28;20052;-69
2023/05/06 01:41:25;;;;;;;1.00;1.00;;;16.60;1.00;;;;;;5134355;28;20022;-70
2023/05/06 01:44:01;;;;;;;0.95;0.95;;;16.60;1.00;;;;;;5120512;28;20040;-67
2023/05/06 01:46:34;;;;;;;0.88;0.88;;;16.50;1.00;;;;;;5101478;28;20050;-73
2023/05/06 01:49:11;;;;;;;1.00;1.00;;;16.50;1.00;;;;;;5135132;28;20053;-75
2023/05/06 01:51:54;;;;;;;0.80;0.80;;;16.50;1.00;;;;;;5104538;28;20034;-76
2023/05/06 01:54:26;;;;;;;0.90;0.90;;;16.40;1.00;;;;;;5102645;28;20049;-75
2023/05/06 01:56:57;;;;;;;0.70;0.70;;;16.40;1.00;;;;;;5133906;28;20076;-71
2023/05/06 01:59:31;;;;;;;0.80;0.80;;;16.30;1.00;;;;;;5116536;28;20052;-70
2023/05/06 02:02:05;;;;;;;;;;;16.30;1.00;;;;;;5134599;28;20046;-70
2023/05/06 02:04:40;;;;;;;0.77;0.77;;;16.30;1.00;;;;;;5138044;28;19964;-70
2023/05/06 02:07:11;;;;;;;1.05;1.05;;;16.30;1.00;;;;;;5090796;28;20052;-71
2023/05/06 02:09:48;;;;;;;0.73;0.73;;;16.30;1.00;;;;;;5164419;28;20381;-69
2023/05/06 02:12:20;;;;;;;0.95;0.80;;;16.20;1.00;;;;;;5099990;28;20492;-72
2023/05/06 02:14:57;;;;;;;1.00;1.00;;;16.20;1.00;;;;;;5125608;28;20072;-68
2023/05/06 02:17:33;;;;;;;0.70;0.70;;;16.20;1.00;;;;;;5116116;28;20052;-73
2023/05/06 02:20:08;;;;;;;0.90;0.90;;;16.20;1.00;;;;;;5119770;28;20054;-69
2023/05/06 02:22:45;;;;;;;0.80;0.80;;;16.20;1.00;;;;;;5134980;28;20497;-71
2023/05/06 02:25:17;;;;;;;0.70;0.70;;;16.20;1.00;;;;;;5119498;28;20038;-74
2023/05/06 02:27:53;;;;;;;0.80;0.80;;;16.20;1.00;;;;;;5151592;28;20252;-66
2023/05/06 02:30:31;;;;;;;0.85;0.80;;;16.20;1.00;;;;;;5132324;28;20054;-73
2023/05/06 02:33:08;;;;;;;0.80;0.80;;;16.20;1.00;;;;;;5117684;28;20466;-67
2023/05/06 02:35:43;;;;;;;0.80;0.80;;;16.20;1.00;;;;;;5102448;28;20050;-70
2023/05/06 02:38:18;;;;;;;0.85;0.85;;;16.20;1.00;;;;;;5102290;28;20052;-71
2023/05/06 02:40:52;;;;;;;0.75;0.75;;;16.20;1.00;;;;;;5167086;28;20022;-73
2023/05/06 02:43:29;;;;;;;1.15;1.00;;;16.20;1.00;;;;;;5117995;28;20042;-70
2023/05/06 02:46:02;;;;;;;0.57;0.57;;;16.20;1.00;;;;;;5138762;28;20038;-71
2023/05/06 02:48:34;;;;;;;0.80;0.80;;;16.20;1.00;;;;;;5133764;28;20118;-74
2023/05/06 02:51:13;;;;;;;0.70;0.70;;;16.20;1.00;;;;;;5156299;28;20458;-71
2023/05/06 02:53:47;;;;;;;0.80;0.80;;;16.20;1.00;;;;;;5106454;28;20495;-71
2023/05/06 02:56:23;;;;;;;0.80;0.80;;;16.20;1.00;;;;;;5138106;28;20048;-76
2023/05/06 02:59:00;;;;;;;0.88;0.88;;;16.20;1.00;;;;;;5138271;28;20025;-69
2023/05/06 03:01:33;;;;;;;0.80;0.80;;;16.10;1.00;;;;;;5136362;28;20038;-69
2023/05/06 03:04:07;;;;;;;0.90;0.90;;;15.90;1.00;;;;;;5138577;28;20446;-73
2023/05/06 03:06:46;;;;;;;;;;;15.90;1.00;;;;;;5130294;28;20054;-67
2023/05/06 03:09:18;;;;;;;1.00;0.88;;;15.90;1.00;;;;;;5107158;28;19917;-73
2023/05/06 03:11:49;;;;;;;0.95;0.95;;;16.00;1.00;;;;;;5137963;28;20038;-73
2023/05/06 03:14:21;;;;;;;1.00;1.00;;;16.00;1.00;;;;;;5156048;28;20036;-66
2023/05/06 03:16:53;;;;;;;1.08;1.08;;;16.00;1.00;;;;;;5136126;28;20042;-71
2023/05/06 03:19:25;;;;;;;0.90;0.90;;;16.00;1.00;;;;;;5153476;28;20495;-73
2023/05/06 03:21:59;;;;;;;0.70;0.70;;;16.00;1.00;;;;;;5153956;28;20042;-68
2023/05/06 03:24:31;;;;;;;0.90;0.90;;;16.00;1.00;;;;;;5137172;28;20457;-72
2023/05/06 03:27:05;;;;;;;1.88;0.90;;;16.10;1.00;;;;;;5150968;28;20034;-70
2023/05/06 03:29:38;;;;;;;;;;;16.10;1.00;;;;;;5138365;28;20050;-76
2023/05/06 03:32:15;;;;;;;0.80;0.80;;;16.10;1.00;;;;;;5134181;28;20245;-73
2023/05/06 03:34:46;;;;;;;1.10;1.00;;;16.10;1.00;;;;;;5105771;28;20046;-69
2023/05/06 03:37:20;;;;;;;0.80;0.80;;;16.10;1.00;;;;;;5121019;28;20038;-69
2023/05/06 03:39:52;;;;;;;1.20;1.10;;;16.00;1.00;;;;;;5149096;28;20042;-72
2023/05/06 03:42:28;;;;;;;1.92;0.90;;;16.00;1.00;;;;;;5126649;28;20040;-66
2023/05/06 03:45:06;;;;;;;0.85;0.85;;;16.00;1.00;;;;;;5122279;28;20052;-75
2023/05/06 03:47:45;;;;;;;0.70;0.70;;;16.00;1.00;;;;;;5121892;28;20381;-70
2023/05/06 03:50:16;;;;;;;0.77;0.77;;;16.00;1.00;;;;;;5138687;28;20041;-69
2023/05/06 03:52:48;;;;;;;0.93;0.93;;;16.00;1.00;;;;;;5138439;28;20030;-71
2023/05/06 03:55:22;;;;;;;0.80;0.80;;;16.00;1.00;;;;;;5121275;28;20046;-73
2023/05/06 03:57:56;;;;;;;0.90;0.90;;;16.00;1.00;;;;;;5120524;28;20042;-72
2023/05/06 04:00:27;;;;;;;3.92;1.00;;;16.00;1.00;;;;;;5151995;28;20042;-68
2023/05/06 04:03:01;;;;;;;0.90;0.90;;;16.00;1.00;;;;;;5130508;28;20054;-71
2023/05/06 04:05:35;;;;;;;1.10;1.10;;;16.00;1.00;;;;;;5091408;28;20059;-74
2023/05/06 04:08:07;;;;;;;1.02;1.00;;;16.00;1.00;;;;;;5091708;28;20472;-70
2023/05/06 04:10:47;;;;;;;0.80;0.80;;;16.00;1.00;;;;;;5104950;28;20043;-71
2023/05/06 04:13:20;;;;;;;1.17;1.08;;;16.00;1.00;;;;;;5100242;28;20047;-76
2023/05/06 04:15:55;;;;;;;1.30;1.20;;;16.00;1.00;;;;;;5129062;28;20053;-72
2023/05/06 04:18:29;;;;;;;0.70;0.70;;;16.00;1.00;;;;;;5117312;28;20614;-71
2023/05/06 04:21:06;;;;;;;1.05;0.80;;;16.00;1.00;;;;;;5115954;28;20039;-71
2023/05/06 04:23:37;;;;;;;0.90;0.90;;;16.10;1.00;;;;;;5118260;28;20437;-72
2023/05/06 04:26:09;;;;;;;0.70;0.70;;;16.20;1.00;;;;;;5107037;28;20053;-71
2023/05/06 04:28:43;;;;;;;0.95;0.82;;;16.20;1.00;;;;;;5102560;28;20039;-67
2023/05/06 04:31:15;;;;;;;0.68;0.68;;;16.30;1.00;;;;;;5119053;28;20051;-73
2023/05/06 04:33:52;;;;;;;0.80;0.80;;;16.40;1.00;;;;;;5133226;28;20061;-70
2023/05/06 04:36:23;;;;;;;0.90;0.90;;;16.40;1.00;;;;;;5134729;28;20513;-76
2023/05/06 04:38:58;;;;;;;1.73;1.00;;;16.50;1.00;;;;;;5099656;28;20045;-71
2023/05/06 04:41:29;;;;;;;;;;;16.30;1.00;;;;;;5114623;28;20040;-75
2023/05/06 04:44:02;;;;;;;1.00;1.00;;;16.30;1.00;;;;;;5099941;28;20275;-73
2023/05/06 04:46:36;;;;;;;1.25;1.17;;;16.30;1.00;;;;;;5113466;28;20067;-73
2023/05/06 04:49:08;;;;;;;0.93;0.93;;;16.10;1.00;;;;;;5116362;28;20038;-73
2023/05/06 04:51:42;;;;;;;1.10;0.95;;;16.10;1.00;;;;;;5133935;28;20370;-75
2023/05/06 04:54:20;;;;;;;0.98;0.98;;;16.00;1.00;;;;;;5099388;28;20057;-73
2023/05/06 04:56:54;;;;;;;0.90;0.90;;;15.90;1.00;;;;;;5099301;28;20222;-68
2023/05/06 04:59:29;;;;;;;1.02;1.00;;;15.90;1.00;;;;;;5100029;28;20045;-72
2023/05/06 05:02:01;;;;;;;1.08;1.08;;;15.80;1.00;;;;;;5129181;28;20057;-74
2023/05/06 05:04:36;;;;;;;1.20;1.13;;;15.90;1.00;;;;;;5108453;28;20054;-74
2023/05/06 05:07:10;;;;;;;0.93;0.90;;;15.90;1.00;;;;;;5128694;28;20031;-73
2023/05/06 05:09:41;;;;;;;1.10;1.10;;;15.90;1.00;;;;;;5092896;28;20042;-72
2023/05/06 05:12:15;;;;;;;1.10;1.00;;;15.80;1.00;;;;;;5133603;28;20339;-72
2023/05/06 05:14:50;;;;;;;1.25;1.17;;;15.80;1.00;;;;;;5083265;28;20054;-70
2023/05/06 05:17:27;;;;;;;0.90;0.90;;;15.80;1.00;;;;;;5097666;28;20042;-71
2023/05/06 05:20:02;;;;;;;1.23;1.13;;;15.80;1.00;;;;;;5084219;28;20046;-73
2023/05/06 05:22:36;;;;;;;1.10;1.10;;;15.80;1.00;;;;;;5100604;28;20042;-72
2023/05/06 05:25:12;;;;;;;1.20;1.10;;;15.80;1.00;;;;;;5082870;28;20044;-70
2023/05/06 05:27:47;;;;;;;1.20;1.10;;;15.80;1.00;;;;;;5083904;28;20047;-71
2023/05/06 05:30:21;;;;;;;0.93;0.93;;;16.00;1.00;;;;;;5112531;28;20057;-69
2023/05/06 05:32:58;;;;;;;1.35;1.20;;;16.00;1.00;;;;;;5115462;28;20379;-74
2023/05/06 05:35:31;;;;;;;0.90;0.88;;;16.10;1.00;;;;;;5115588;28;20082;-73
2023/05/06 05:38:03;;;;;;;1.42;1.10;;;16.10;1.00;;;;;;5131442;28;20108;-72
2023/05/06 05:40:40;;;;;;;0.98;0.90;;;15.90;1.00;;;;;;5147885;28;20057;-76
2023/05/06 05:43:14;;;;;;;0.95;0.95;;;15.90;1.00;;;;;;5111557;29;20039;-74
2023/05/06 05:45:50;;;;;;;0.90;0.90;;;15.90;1.00;;;;;;5107857;29;20049;-69
2023/05/06 05:48:24;;;;;;;1.33;1.23;;;15.90;11.70;;;;;;5110860;29;20039;-70
2023/05/06 05:51:00;;;;;;;1.40;1.30;;;16.00;32.40;;;;;;5110847;29;20049;-71
2023/05/06 05:53:34;;;;;;;0.80;0.80;;;16.10;38.50;;;;;;5126997;28;20043;-70
2023/05/06 05:56:08;;;;;;;1.15;1.08;;;16.20;35.00;;;;;;5095325;29;20051;-69
2023/05/06 05:58:46;;;;;;;1.52;1.40;;;16.30;4.60;;;;;;5127282;28;20041;-68
2023/05/06 06:01:18;;;;;;;1.50;1.40;;;16.40;1.00;;;;;;5096940;28;20042;-73
2023/05/06 06:03:56;;;;;;;1.40;1.27;;;16.60;1.00;;;;;;5097619;28;20050;-73
2023/05/06 06:06:30;;;;;;;1.27;1.17;;;16.70;1.00;;;;;;5117740;28;20039;-71
2023/05/06 06:09:03;;;;;;;1.52;1.42;;;16.90;1.00;;;;;;5107862;28;20043;-69
2023/05/06 06:11:37;;;;;;;1.40;1.30;;;17.00;1.00;;;;;;5095872;29;20043;-71
2023/05/06 06:14:08;;;;;;;1.45;1.35;;;17.00;1.00;;;;;;5063715;29;20386;-74
2023/05/06 06:16:40;;;;;;;1.00;1.00;;;17.20;1.00;;;;;;5086989;29;20035;-71
2023/05/06 06:19:14;;;;;;;1.55;1.13;;;17.50;1.40;;;;;;5117210;28;20361;-75
2023/05/06 06:21:48;;;;;;;1.40;1.30;;;17.70;1.00;;;;;;5113577;28;20060;-69
2023/05/06 06:24:19;;;;;;;1.77;1.63;;;17.90;1.00;;;;;;5093567;28;20051;-70
2023/05/06 06:26:54;;;;;;;1.60;1.50;;;18.10;1.00;;;;;;5105220;28;20525;-71
2023/05/06 06:29:28;;;;;;;1.75;1.65;;;18.30;1.00;;;;;;5109144;28;20049;-73
2023/05/06 06:32:01;;;;;;;2.20;1.80;;;18.50;1.00;;;;;;5100569;28;20046;-74
2023/05/06 06:34:33;;;;;;;2.33;1.90;;;18.30;1.00;;;;;;5084688;28;20239;-76
2023/05/06 06:37:11;;;;;;;1.98;1.77;;;18.00;1.00;;;;;;5121900;28;20051;-75
2023/05/06 06:39:42;;;;;;;2.13;1.92;;;17.80;1.00;;;;;;5098142;28;20046;-70
2023/05/06 06:42:14;;;;;;;1.92;1.40;;;17.80;1.00;;;;;;5089704;28;20046;-72
2023/05/06 06:44:48;;;;;;;2.13;1.60;;;17.90;1.00;;;;;;5115397;28;20051;-74
2023/05/06 06:47:22;;;;;;;3.17;1.60;;;18.10;1.00;;;;;;5096690;28;20355;-71
2023/05/06 06:49:53;;;;;;;2.25;2.05;;;18.30;1.00;;;;;;5098455;28;20043;-72
2023/05/06 06:52:25;;;;;;;1.50;1.40;;;18.20;1.00;;;;;;5113772;28;20054;-70
2023/05/06 06:55:00;;;;;;;1.30;1.20;;;18.40;1.00;;;;;;5114607;28;20606;-70
2023/05/06 06:57:35;;;;;;;1.80;1.67;;;18.50;1.00;;;;;;5112286;28;20046;-75
2023/05/06 07:00:07;;;;;;;1.50;1.30;;;18.60;1.00;;;;;;5110955;28;20056;-75
2023/05/06 07:02:40;;;;;;;1.30;1.20;;;18.90;1.00;;;;;;5120313;28;20045;-74
2023/05/06 07:05:14;;;;;;;1.15;1.05;;;19.20;1.00;;;;;;5101953;28;20369;-67
2023/05/06 07:07:47;;;;;;;1.45;1.35;;;19.10;1.00;;;;;;5127566;28;20054;-71
2023/05/06 07:10:22;;;;;;;1.40;1.30;;;18.90;1.00;;;;;;5102894;28;20141;-77
2023/05/06 07:12:57;;;;;;;1.30;1.20;;;19.10;1.00;;;;;;5133897;28;20042;-72
2023/05/06 07:15:31;;;;;;;0.98;0.98;;;19.30;1.00;;;;;;5093761;28;20043;-71
2023/05/06 07:18:03;;;;;;;1.73;1.33;;;19.40;1.00;;;;;;5111265;28;20035;-71
2023/05/06 07:20:34;;;;;;;1.45;1.35;;;19.90;1.00;;;;;;5135167;28;20243;-70
2023/05/06 07:23:08;;;;;;;0.77;0.77;;;20.20;1.00;;;;;;5135036;28;20040;-70
2023/05/06 07:25:42;;;;;;;1.40;1.30;;;20.40;1.00;;;;;;5102712;28;20334;-71
2023/05/06 07:28:16;;;;;;;;;;;20.80;1.00;;;;;;5135643;28;20608;-71
2023/05/06 07:30:50;;;;;;;0.90;0.90;;;21.10;1.00;;;;;;5147979;28;19914;-73
2023/05/06 07:33:24;;;;;;;1.38;1.02;;;21.60;1.00;;;;;;5150257;28;20283;-75
2023/05/06 07:35:59;;;;;;;0.85;0.82;;;22.20;1.00;;;;;;5150326;28;20342;-75
2023/05/06 07:38:33;;;;;;;1.00;0.88;;;22.50;1.00;;;;;;5133961;28;20042;-75
2023/05/06 07:41:10;;;;;;;0.70;0.70;;;22.80;1.00;;;;;;5113542;28;20052;-76
2023/05/06 07:43:46;;;;;;;0.85;0.85;;;22.60;1.00;;;;;;5112240;28;20054;-74
2023/05/06 07:46:19;;;;;;;1.00;0.88;;;22.40;1.00;;;;;;5101801;28;20042;-71
2023/05/06 07:48:50;;;;;;;1.13;0.88;;;22.00;1.00;;;;;;5117710;28;20053;-71
2023/05/06 07:51:22;;;;;;;0.77;0.70;;;22.00;1.00;;;;;;5131369;28;20054;-73
2023/05/06 07:53:56;;;;;;;0.80;0.80;;;21.80;1.00;;;;;;5102908;28;20064;-73
2023/05/06 07:56:28;;;;;;;;;;;21.90;1.00;;;;;;5089914;28;20046;-72
2023/05/06 07:59:03;;;;;;;0.80;0.80;;;22.00;1.00;;;;;;5127521;28;19921;-71
2023/05/06 08:01:37;;;;;;;1.05;1.00;;;21.70;1.00;;;;;;5135513;28;20038;-71
2023/05/06 08:04:08;;;;;;;0.70;0.70;;;21.70;1.00;;;;;;5153407;28;20606;-73
2023/05/06 08:06:42;;;;;;;1.42;0.90;;;21.50;1.00;;;;;;5092121;28;20050;-72
2023/05/06 08:09:21;;;;;;;0.80;0.80;;;21.50;1.00;;;;;;5116337;28;20089;-71
2023/05/06 08:11:58;;;;;;;1.05;1.05;;;21.70;1.00;;;;;;5111465;28;20061;-72
2023/05/06 08:14:30;;;;;;;0.90;0.90;;;21.90;1.00;;;;;;5115575;28;20043;-72
2023/05/06 08:17:02;;;;;;;2.53;0.85;;;22.30;1.00;;;;;;5097755;28;20347;-69
2023/05/06 08:19:34;;;;;;;1.10;1.10;;;22.70;1.00;;;;;;5115736;28;20050;-76
2023/05/06 08:22:10;;;;;;;0.88;0.88;;;22.90;1.00;;;;;;5124082;28;20141;-74
2023/05/06 08:24:41;;;;;;;2.83;0.95;;;22.60;1.00;;;;;;5103599;28;20045;-69
2023/05/06 08:27:15;;;;;;;0.77;0.77;;;22.50;1.00;;;;;;5139193;28;20038;-73
2023/05/06 08:29:50;;;;;;;0.93;0.93;;;22.30;1.00;;;;;;5137231;28;20046;-72
2023/05/06 08:32:21;;;;;;;0.80;0.80;;;22.30;1.00;;;;;;5117326;28;20042;-73
2023/05/06 08:34:53;;;;;;;1.23;1.00;;;22.40;1.00;;;;;;5124438;28;20048;-72
2023/05/06 08:37:30;;;;;;;0.90;0.77;;;22.80;1.00;;;;;;5124008;28;20043;-71
2023/05/06 08:40:04;;;;;;;2.25;0.80;;;23.20;1.00;;;;;;5100768;28;20377;-74
2023/05/06 08:42:37;;;;;;;2.78;1.15;;;23.60;1.00;;;;;;5115828;28;20050;-71
2023/05/06 08:45:12;;;;;;;0.63;0.63;;;24.00;1.00;;;;;;5117306;28;20050;-77
2023/05/06 08:47:48;;;;;;;0.77;0.77;;;24.00;1.00;;;;;;5091702;28;20062;-69
2023/05/06 08:50:25;;;;;;;1.65;1.13;;;24.20;1.00;;;;;;5135199;28;20034;-71
2023/05/06 08:53:02;;;;;;;0.65;0.60;;;24.30;1.00;;;;;;5116196;28;20042;-78
2023/05/06 08:55:35;;;;;;;0.70;0.70;;;23.90;1.00;;;;;;5105246;28;20042;-74
2023/05/06 08:58:12;;;;;;;0.90;0.90;;;23.40;1.00;;;;;;5114599;28;20299;-75
2023/05/06 09:00:52;;;;;;;0.82;0.82;;;23.20;1.00;;;;;;5102460;28;20046;-72
2023/05/06 09:03:32;;;;;;;0.90;0.90;;;23.10;1.00;;;;;;5140972;28;20049;-75
2023/05/06 09:06:10;;;;;;;0.95;0.90;;;23.00;1.00;;;;;;5125630;28;20069;-74
2023/05/06 09:08:42;;;;;;;0.80;0.80;;;23.40;1.00;;;;;;5136421;28;20172;-74
2023/05/06 09:11:25;;;;;;;0.70;0.70;;;23.40;1.00;;;;;;5120787;28;20503;-77
2023/05/06 09:14:26;;;;;;;0.80;0.80;;;23.20;1.00;;;;;;5119082;28;20124;-74
2023/05/06 09:17:00;;;;;;;1.75;0.82;;;22.80;1.00;;;;;;5065275;29;20047;-74
2023/05/06 09:19:42;;;;;;;0.95;0.90;;;22.80;1.00;;;;;;5071734;29;20035;-76
2023/05/06 09:22:16;;;;;;;0.88;0.88;;;23.10;1.00;;;;;;5081773;29;20090;-75
2023/05/06 09:24:55;;;;;;;;;;;22.80;1.00;;;;;;5042081;29;20051;-70
2023/05/06 09:27:31;;;;;;;0.75;0.75;;;22.70;1.00;;;;;;5067648;29;19914;-75
2023/05/06 09:30:13;;;;;;;1.10;1.00;;;22.80;1.00;;;;;;5072649;29;20663;-76
2023/05/06 09:32:48;;;;;;;1.10;1.10;;;22.50;1.00;;;;;;5065422;29;20058;-73
2023/05/06 09:35:23;;;;;;;1.00;1.00;;;22.00;1.00;;;;;;5080278;29;20062;-72
2023/05/06 09:37:55;;;;;;;0.70;0.70;;;21.90;1.00;;;;;;5073721;29;20277;-72
2023/05/06 09:40:28;;;;;;;0.95;0.95;;;22.10;1.00;;;;;;5051087;29;20050;-73
2023/05/06 09:43:02;;;;;;;1.00;1.00;;;22.30;1.00;;;;;;5117260;28;20255;-71
2023/05/06 09:45:35;;;;;;;1.02;1.00;;;22.20;1.00;;;;;;5116533;28;20046;-73
2023/05/06 09:48:10;;;;;;;1.38;0.85;;;22.50;1.00;;;;;;5080515;28;20052;-71
2023/05/06 09:50:43;;;;;;;1.38;1.20;;;22.70;1.00;;;;;;5110440;28;20030;-73
2023/05/06 09:53:20;;;;;;;1.70;0.80;;;22.70;1.00;;;;;;5119203;28;20137;-73
2023/05/06 09:55:57;;;;;;;0.90;0.90;;;22.80;1.00;;;;;;5145933;28;20189;-73
2023/05/06 09:58:35;;;;;;;0.75;0.75;;;22.70;1.00;;;;;;5120087;28;20313;-73
2023/05/06 10:01:14;;;;;;;1.25;0.90;;;22.90;1.00;;;;;;5094763;28;20064;-71
2023/05/06 10:03:55;;;;;;;0.90;0.90;;;23.20;1.00;;;;;;5128853;28;20074;-70
2023/05/06 10:06:26;;;;;;;0.63;0.63;;;23.40;1.00;;;;;;5107913;28;20254;-70
2023/05/06 10:09:01;;;;;;;0.90;0.90;;;23.80;1.00;;;;;;5134425;28;20330;-73
2023/05/06 10:11:38;;;;;;;1.10;1.10;;;24.00;1.00;;;;;;5146560;28;20134;-70
2023/05/06 10:14:10;;;;;;;0.90;0.90;;;24.00;1.00;;;;;;5120587;28;20046;-74
2023/05/06 10:16:42;;;;;;;0.95;0.80;;;23.80;1.00;;;;;;5114324;28;20052;-77
2023/05/06 10:19:21;;;;;;;1.58;0.80;;;23.80;1.00;;;;;;5108365;28;20069;-74
2023/05/06 10:22:15;;;;;;;1.25;0.77;;;24.20;1.00;;;;;;5148033;28;20018;-74
2023/05/06 10:24:59;;;;;;;0.90;0.90;;;24.40;1.00;;;;;;5133575;28;20139;-73
2023/05/06 10:27:43;;;;;;;0.90;0.90;;;25.40;1.00;;;;;;5148511;28;20022;-72
2023/05/06 10:30:19;;;;;;;3.30;1.10;;;26.00;1.00;;;;;;5145502;28;20437;-70
2023/05/06 10:32:57;;;;;;;1.08;1.05;;;26.10;1.00;;;;;;5115782;28;20065;-73
2023/05/06 10:36:02;;;;;;;0.90;0.88;;;24.70;1.00;;;;;;5150927;28;20357;-71
2023/05/06 10:38:41;;;;;;;0.85;0.85;;;24.60;1.00;;;;;;5131387;28;20312;-72
2023/05/06 10:41:15;;;;;;;1.40;0.90;;;24.20;1.00;;;;;;5132158;28;20057;-68
2023/05/06 10:43:55;;;;;;;0.70;0.70;;;24.30;1.00;;;;;;5147623;28;20052;-75
2023/05/06 10:46:34;;;;;;;1.02;0.80;;;25.40;1.00;;;;;;5148856;28;20356;-77
2023/05/06 10:49:12;;;;;;;0.80;0.70;;;26.80;1.00;;;;;;5146648;28;20075;-72
2023/05/06 10:51:44;;;;;;;0.80;0.80;;;28.30;1.00;;;;;;5129903;28;20304;-73
2023/05/06 10:54:21;;;;;;;1.83;0.80;;;29.50;1.00;;;;;;5147222;28;20054;-75
2023/05/06 10:56:53;;;;;;;0.80;0.80;;;30.30;1.00;;;;;;5138721;28;20220;-72
2023/05/06 10:59:28;;;;;;;1.38;0.80;;;30.00;1.00;;;;;;5126692;28;20068;-75
2023/05/06 11:02:05;;;;;;;0.70;0.70;;;29.40;1.00;;;;;;5136969;28;20038;-68
2023/05/06 11:04:38;;;;;;;0.70;0.70;;;29.90;1.00;;;;;;5148660;28;20292;-73
2023/05/06 11:07:12;;;;;;;0.70;0.70;;;30.00;1.00;;;;;;5113313;28;20244;-69
2023/05/06 11:10:06;;;;;;;1.00;0.77;;;28.70;1.00;;;;;;5129207;28;20042;-72
2023/05/06 11:12:55;;;;;;;0.70;0.70;;;28.10;1.00;;;;;;5114086;28;20057;-74
2023/05/06 11:15:50;;;;;;;0.80;0.80;;;27.70;1.00;;;;;;5103749;28;20453;-68
2023/05/06 11:18:28;;;;;;;0.80;0.80;;;27.80;1.00;;;;;;5129143;28;20385;-72
2023/05/06 11:20:59;;;;;;;0.68;0.68;;;27.40;1.00;;;;;;5125689;28;20316;-75
2023/05/06 11:24:01;;;;;;;0.90;0.90;;;28.20;1.00;;;;;;5125950;28;20245;-71
2023/05/06 11:26:36;;;;;;;0.70;0.70;;;29.90;1.00;;;;;;5108994;28;20042;-71
2023/05/06 11:29:10;;;;;;;0.88;0.73;;;31.40;1.00;;;;;;5107966;28;20192;-69
2023/05/06 11:31:44;;;;;;;0.95;0.70;;;31.90;1.00;;;;;;5106198;28;20045;-72
2023/05/06 11:34:28;;;;;;;0.90;0.90;;;33.90;1.00;;;;;;5107824;28;20043;-74
2023/05/06 11:37:08;;;;;;;0.68;0.68;;;33.30;1.00;;;;;;5109151;28;20248;-74
2023/05/06 11:39:52;;;;;;;0.85;0.70;;;29.80;1.00;;;;;;5098228;28;20039;-73
2023/05/06 11:42:26;;;;;;;1.95;1.00;;;28.60;1.00;;;;;;5122708;28;20424;-74
2023/05/06 11:45:00;;;;;;;;;;;27.90;1.00;;;;;;5123765;28;20034;-70
2023/05/06 11:47:34;;;;;;;2.30;0.85;;;28.40;1.00;;;;;;5106278;28;19928;-78
2023/05/06 11:50:14;;;;;;;0.82;0.77;;;29.30;1.00;;;;;;5091728;28;20047;-73
2023/05/06 11:52:48;;;;;;;0.98;0.75;;;28.40;1.00;;;;;;5096696;28;20042;-73
2023/05/06 11:55:22;;;;;;;;;;;29.40;1.00;;;;;;5119101;28;20327;-75
2023/05/06 11:57:55;;;;;;;1.50;0.93;;;29.60;1.00;;;;;;5130238;28;19926;-72
2023/05/06 12:00:29;;;;;;;1.30;0.98;;;28.90;1.00;;;;;;5066554;28;20780;-75
2023/05/06 12:03:02;;;;;;;0.85;0.85;;;27.70;1.00;;;;;;5128240;28;20034;-72
2023/05/06 12:05:34;;;;;;;0.90;0.90;;;27.90;1.00;;;;;;5126056;28;20065;-78
2023/05/06 12:08:05;;;;;;;0.68;0.60;;;28.50;1.00;;;;;;5122379;28;20506;-74
2023/05/06 12:10:38;;;;;;;0.75;0.75;;;28.30;1.00;;;;;;5091742;28;20440;-73
2023/05/06 12:13:15;;;;;;;0.75;0.75;;;27.50;1.00;;;;;;5128609;28;20048;-73
2023/05/06 12:15:53;;;;;;;2.97;0.98;;;26.90;1.00;;;;;;5108233;28;20023;-71
2023/05/06 12:18:28;;;;;;;0.77;0.77;;;27.30;1.00;;;;;;5108504;29;20051;-72
2023/05/06 12:21:06;;;;;;;1.00;1.00;;;27.80;1.00;;;;;;5117825;28;20121;-75
2023/05/06 12:23:53;;;;;;;1.52;1.10;;;26.60;1.00;;;;;;5114660;28;20046;-73
2023/05/06 12:26:29;;;;;;;1.52;1.30;;;26.70;1.00;;;;;;5126723;28;20486;-76
2023/05/06 12:29:09;;;;;;;1.00;0.90;;;28.10;1.00;;;;;;5102684;28;20043;-74
2023/05/06 12:31:42;;;;;;;1.00;0.90;;;28.20;1.00;;;;;;5113726;28;20051;-72
2023/05/06 12:34:17;;;;;;;0.68;0.68;;;27.40;1.00;;;;;;5108099;28;20327;-70
2023/05/06 12:36:50;;;;;;;0.70;0.70;;;28.00;1.00;;;;;;5092222;28;20051;-72
2023/05/06 12:39:24;;;;;;;1.50;0.80;;;28.90;1.00;;;;;;5125067;28;20054;-69
2023/05/06 12:41:58;;;;;;;0.80;0.80;;;29.00;1.00;;;;;;5129369;28;20045;-75
2023/05/06 12:44:44;;;;;;;0.55;0.55;;;29.00;1.00;;;;;;5084081;28;20046;-74
2023/05/06 12:47:25;;;;;;;0.70;0.70;;;30.00;1.00;;;;;;5106312;28;20172;-74
2023/05/06 12:49:57;;;;;;;0.70;0.70;;;30.30;1.00;;;;;;5113069;28;20541;-72
2023/05/06 12:52:31;;;;;;;0.60;0.60;;;30.50;1.00;;;;;;5093019;28;20708;-70
2023/05/06 12:55:09;;;;;;;0.68;0.68;;;30.90;1.00;;;;;;5107191;28;20049;-76
2023/05/06 12:57:41;;;;;;;0.60;0.60;;;31.50;1.00;;;;;;5098197;28;20424;-75
2023/05/06 13:00:17;;;;;;;1.50;1.17;;;31.80;1.00;;;;;;5097050;28;20080;-72
2023/05/06 13:02:59;;;;;;;1.35;0.93;;;31.50;1.00;;;;;;5114889;28;20051;-73
2023/05/06 13:05:33;;;;;;;1.48;0.75;;;32.00;1.00;;;;;;5120044;28;20046;-70
2023/05/06 13:08:05;;;;;;;1.10;1.00;;;31.00;1.00;;;;;;5125168;28;20034;-73
2023/05/06 13:10:37;;;;;;;0.85;0.70;;;30.10;1.00;;;;;;5143525;28;20572;-71
2023/05/06 13:13:09;;;;;;;0.98;0.88;;;28.60;1.00;;;;;;5094170;28;20058;-74
2023/05/06 13:15:41;;;;;;;1.20;1.10;;;27.70;1.00;;;;;;5094888;28;20049;-71
2023/05/06 13:18:12;;;;;;;0.95;0.90;;;28.30;1.00;;;;;;5126393;28;20050;-69
2023/05/06 13:20:44;;;;;;;0.70;0.70;;;30.10;1.00;;;;;;5113477;28;20050;-71
2023/05/06 13:23:18;;;;;;;1.02;1.00;;;31.60;1.00;;;;;;5112467;28;20034;-75
2023/05/06 13:25:52;;;;;;;1.10;0.95;;;32.40;1.00;;;;;;5113892;28;20043;-73
2023/05/06 13:28:25;;;;;;;;;;;32.40;1.00;;;;;;5132093;28;20082;-71
2023/05/06 13:31:02;;;;;;;0.80;0.80;;;32.90;1.00;;;;;;5125237;28;19922;-76
2023/05/06 13:33:39;;;;;;;0.80;0.80;;;32.00;1.00;;;;;;5126895;28;20096;-74
2023/05/06 13:36:14;;;;;;;0.70;0.70;;;29.20;1.00;;;;;;5133612;28;20027;-75
2023/05/06 13:38:47;;;;;;;0.82;0.82;;;27.90;1.00;;;;;;5113294;28;20042;-71
2023/05/06 13:41:21;;;;;;;0.88;0.70;;;28.20;1.00;;;;;;5108957;28;20043;-75